sensor_id;sensor_type;location;lat;lon;timestamp;P1;durP1;ratioP1;P2;durP2;ratioP2
3700;SDS011;1866;48.374;10.766;2023-02-20T00:01:28;97.77;;;5.93;;
3700;SDS011;1866;48.374;10.766;2023-02-20T00:03:57;98.50;;;5.90;;
3700;SDS011;1866;48.374;10.766;2023-02-20T00:06:24;98.90;;;6.20;;
3700;SDS011;1866;48.374;10.766;2023-02-20T00:08:52;99.27;;;6.27;;
3700;SDS011;1866;48.374;10.766;2023-02-20T00:11:20;98.10;;;6.30;;
3700;SDS011;1866;48.374;10.766;2023-02-20T00:13:47;98.33;;;6.17;;
3700;SDS011;1866;48.374;10.766;2023-02-20T00:16:15;103.60;;;6.23;;
3700;SDS011;1866;48.374;10.766;2023-02-20T00:18:42;100.73;;;6.43;;
3700;SDS011;1866;48.374;10.766;2023-02-20T00:21:17;99.80;;;6.10;;
3700;SDS011;1866;48.374;10.766;2023-02-20T00:23:44;98.50;;;6.20;;
3700;SDS011;1866;48.374;10.766;2023-02-20T00:26:17;100.50;;;6.43;;
3700;SDS011;1866;48.374;10.766;2023-02-20T00:28:45;97.53;;;5.90;;
3700;SDS011;1866;48.374;10.766;2023-02-20T00:31:14;98.10;;;6.10;;
3700;SDS011;1866;48.374;10.766;2023-02-20T00:33:42;97.87;;;5.87;;
3700;SDS011;1866;48.374;10.766;2023-02-20T00:36:13;99.70;;;6.30;;
3700;SDS011;1866;48.374;10.766;2023-02-20T00:38:45;100.47;;;6.33;;
3700;SDS011;1866;48.374;10.766;2023-02-20T00:41:13;97.70;;;6.30;;
3700;SDS011;1866;48.374;10.766;2023-02-20T00:43:42;97.87;;;6.07;;
3700;SDS011;1866;48.374;10.766;2023-02-20T00:46:10;100.27;;;6.20;;
3700;SDS011;1866;48.374;10.766;2023-02-20T00:48:39;98.60;;;6.20;;
3700;SDS011;1866;48.374;10.766;2023-02-20T00:51:05;100.87;;;6.47;;
3700;SDS011;1866;48.374;10.766;2023-02-20T00:53:33;99.47;;;6.47;;
3700;SDS011;1866;48.374;10.766;2023-02-20T00:56:01;97.87;;;5.80;;
3700;SDS011;1866;48.374;10.766;2023-02-20T00:58:28;98.80;;;6.40;;
3700;SDS011;1866;48.374;10.766;2023-02-20T01:00:55;97.87;;;6.37;;
3700;SDS011;1866;48.374;10.766;2023-02-20T01:03:22;100.97;;;6.13;;
3700;SDS011;1866;48.374;10.766;2023-02-20T01:05:49;97.87;;;6.50;;
3700;SDS011;1866;48.374;10.766;2023-02-20T01:08:16;98.17;;;6.50;;
3700;SDS011;1866;48.374;10.766;2023-02-20T01:10:43;97.40;;;5.90;;
3700;SDS011;1866;48.374;10.766;2023-02-20T01:13:11;98.10;;;6.17;;
3700;SDS011;1866;48.374;10.766;2023-02-20T01:15:38;98.37;;;6.47;;
3700;SDS011;1866;48.374;10.766;2023-02-20T01:18:05;98.77;;;6.27;;
3700;SDS011;1866;48.374;10.766;2023-02-20T01:20:32;99.47;;;6.20;;
3700;SDS011;1866;48.374;10.766;2023-02-20T01:22:59;100.33;;;6.30;;
3700;SDS011;1866;48.374;10.766;2023-02-20T01:25:29;98.33;;;6.30;;
3700;SDS011;1866;48.374;10.766;2023-02-20T01:27:56;97.50;;;6.30;;
3700;SDS011;1866;48.374;10.766;2023-02-20T01:30:24;99.70;;;6.40;;
3700;SDS011;1866;48.374;10.766;2023-02-20T01:32:51;97.97;;;6.50;;
3700;SDS011;1866;48.374;10.766;2023-02-20T01:35:18;99.03;;;6.67;;
3700;SDS011;1866;48.374;10.766;2023-02-20T01:37:45;98.77;;;6.60;;
3700;SDS011;1866;48.374;10.766;2023-02-20T01:40:14;98.03;;;6.37;;
3700;SDS011;1866;48.374;10.766;2023-02-20T01:42:42;100.67;;;6.40;;
3700;SDS011;1866;48.374;10.766;2023-02-20T01:45:28;98.50;;;6.00;;
3700;SDS011;1866;48.374;10.766;2023-02-20T01:47:59;98.90;;;6.50;;
3700;SDS011;1866;48.374;10.766;2023-02-20T01:50:29;98.20;;;6.50;;
3700;SDS011;1866;48.374;10.766;2023-02-20T01:53:07;98.80;;;6.80;;
3700;SDS011;1866;48.374;10.766;2023-02-20T01:55:37;98.67;;;6.53;;
3700;SDS011;1866;48.374;10.766;2023-02-20T01:58:10;98.07;;;6.33;;
3700;SDS011;1866;48.374;10.766;2023-02-20T02:00:42;97.77;;;6.40;;
3700;SDS011;1866;48.374;10.766;2023-02-20T02:03:11;102.17;;;6.43;;
3700;SDS011;1866;48.374;10.766;2023-02-20T02:05:42;98.80;;;6.37;;
3700;SDS011;1866;48.374;10.766;2023-02-20T02:08:12;97.67;;;6.50;;
3700;SDS011;1866;48.374;10.766;2023-02-20T02:10:45;97.70;;;6.20;;
3700;SDS011;1866;48.374;10.766;2023-02-20T02:13:19;97.97;;;6.23;;
3700;SDS011;1866;48.374;10.766;2023-02-20T02:15:48;98.60;;;6.23;;
3700;SDS011;1866;48.374;10.766;2023-02-20T02:21:16;98.03;;;6.30;;
3700;SDS011;1866;48.374;10.766;2023-02-20T02:27:39;97.67;;;6.50;;
3700;SDS011;1866;48.374;10.766;2023-02-20T02:30:33;97.97;;;6.80;;
3700;SDS011;1866;48.374;10.766;2023-02-20T02:33:31;97.90;;;6.53;;
3700;SDS011;1866;48.374;10.766;2023-02-20T02:39:04;100.40;;;6.83;;
3700;SDS011;1866;48.374;10.766;2023-02-20T02:41:41;99.17;;;6.60;;
3700;SDS011;1866;48.374;10.766;2023-02-20T02:44:15;100.07;;;6.73;;
3700;SDS011;1866;48.374;10.766;2023-02-20T02:46:48;98.90;;;6.43;;
3700;SDS011;1866;48.374;10.766;2023-02-20T02:49:23;99.63;;;6.47;;
3700;SDS011;1866;48.374;10.766;2023-02-20T02:51:59;98.20;;;6.63;;
3700;SDS011;1866;48.374;10.766;2023-02-20T02:54:27;96.80;;;6.03;;
3700;SDS011;1866;48.374;10.766;2023-02-20T02:59:45;98.37;;;6.50;;
3700;SDS011;1866;48.374;10.766;2023-02-20T03:02:14;97.97;;;7.00;;
3700;SDS011;1866;48.374;10.766;2023-02-20T03:04:43;97.77;;;6.60;;
3700;SDS011;1866;48.374;10.766;2023-02-20T03:07:16;97.27;;;6.37;;
3700;SDS011;1866;48.374;10.766;2023-02-20T03:09:46;99.30;;;6.70;;
3700;SDS011;1866;48.374;10.766;2023-02-20T03:12:17;102.90;;;7.30;;
3700;SDS011;1866;48.374;10.766;2023-02-20T03:14:46;97.43;;;6.50;;
3700;SDS011;1866;48.374;10.766;2023-02-20T03:17:37;99.13;;;6.67;;
3700;SDS011;1866;48.374;10.766;2023-02-20T03:20:08;97.60;;;6.30;;
3700;SDS011;1866;48.374;10.766;2023-02-20T03:22:40;96.90;;;6.30;;
3700;SDS011;1866;48.374;10.766;2023-02-20T03:25:12;99.57;;;6.57;;
3700;SDS011;1866;48.374;10.766;2023-02-20T03:27:48;97.97;;;6.40;;
3700;SDS011;1866;48.374;10.766;2023-02-20T03:30:22;98.00;;;6.20;;
3700;SDS011;1866;48.374;10.766;2023-02-20T03:32:54;99.40;;;6.80;;
3700;SDS011;1866;48.374;10.766;2023-02-20T03:35:44;98.50;;;6.53;;
3700;SDS011;1866;48.374;10.766;2023-02-20T03:38:31;97.97;;;6.60;;
3700;SDS011;1866;48.374;10.766;2023-02-20T03:41:19;97.17;;;6.27;;
3700;SDS011;1866;48.374;10.766;2023-02-20T03:44:07;97.17;;;5.97;;
3700;SDS011;1866;48.374;10.766;2023-02-20T03:46:38;97.37;;;6.53;;
3700;SDS011;1866;48.374;10.766;2023-02-20T03:49:07;97.20;;;6.63;;
3700;SDS011;1866;48.374;10.766;2023-02-20T03:51:38;97.57;;;6.37;;
3700;SDS011;1866;48.374;10.766;2023-02-20T03:54:07;97.10;;;6.47;;
3700;SDS011;1866;48.374;10.766;2023-02-20T03:56:36;101.37;;;6.40;;
3700;SDS011;1866;48.374;10.766;2023-02-20T03:59:08;99.10;;;6.50;;
3700;SDS011;1866;48.374;10.766;2023-02-20T04:01:40;97.87;;;6.70;;
3700;SDS011;1866;48.374;10.766;2023-02-20T04:04:13;98.93;;;7.57;;
3700;SDS011;1866;48.374;10.766;2023-02-20T04:06:43;97.23;;;6.50;;
3700;SDS011;1866;48.374;10.766;2023-02-20T04:09:18;100.40;;;7.10;;
3700;SDS011;1866;48.374;10.766;2023-02-20T04:11:50;100.97;;;6.30;;
3700;SDS011;1866;48.374;10.766;2023-02-20T04:14:22;99.47;;;6.90;;
3700;SDS011;1866;48.374;10.766;2023-02-20T04:17:04;97.47;;;7.03;;
3700;SDS011;1866;48.374;10.766;2023-02-20T04:19:36;100.20;;;7.10;;
3700;SDS011;1866;48.374;10.766;2023-02-20T04:22:03;96.40;;;6.43;;
3700;SDS011;1866;48.374;10.766;2023-02-20T04:24:37;97.63;;;6.50;;
3700;SDS011;1866;48.374;10.766;2023-02-20T04:27:10;99.40;;;6.90;;
3700;SDS011;1866;48.374;10.766;2023-02-20T04:29:37;98.40;;;6.97;;
3700;SDS011;1866;48.374;10.766;2023-02-20T04:32:05;97.23;;;6.63;;
3700;SDS011;1866;48.374;10.766;2023-02-20T04:34:32;97.30;;;6.50;;
3700;SDS011;1866;48.374;10.766;2023-02-20T04:37:03;96.53;;;6.37;;
3700;SDS011;1866;48.374;10.766;2023-02-20T04:39:36;97.10;;;6.60;;
3700;SDS011;1866;48.374;10.766;2023-02-20T04:42:04;98.80;;;6.67;;
3700;SDS011;1866;48.374;10.766;2023-02-20T04:44:32;99.77;;;6.33;;
3700;SDS011;1866;48.374;10.766;2023-02-20T04:47:00;96.97;;;6.60;;
3700;SDS011;1866;48.374;10.766;2023-02-20T04:49:29;97.97;;;6.50;;
3700;SDS011;1866;48.374;10.766;2023-02-20T04:51:56;103.63;;;6.80;;
3700;SDS011;1866;48.374;10.766;2023-02-20T04:54:23;98.27;;;6.67;;
3700;SDS011;1866;48.374;10.766;2023-02-20T04:56:52;98.57;;;6.70;;
3700;SDS011;1866;48.374;10.766;2023-02-20T04:59:19;101.10;;;6.83;;
3700;SDS011;1866;48.374;10.766;2023-02-20T05:01:46;98.20;;;6.93;;
3700;SDS011;1866;48.374;10.766;2023-02-20T05:04:16;97.00;;;6.33;;
3700;SDS011;1866;48.374;10.766;2023-02-20T05:06:45;97.80;;;6.90;;
3700;SDS011;1866;48.374;10.766;2023-02-20T05:09:13;97.70;;;7.03;;
3700;SDS011;1866;48.374;10.766;2023-02-20T05:11:40;100.50;;;6.67;;
3700;SDS011;1866;48.374;10.766;2023-02-20T05:14:09;97.27;;;6.53;;
3700;SDS011;1866;48.374;10.766;2023-02-20T05:16:37;98.67;;;7.27;;
3700;SDS011;1866;48.374;10.766;2023-02-20T05:19:05;101.60;;;7.33;;
3700;SDS011;1866;48.374;10.766;2023-02-20T05:21:32;97.20;;;6.40;;
3700;SDS011;1866;48.374;10.766;2023-02-20T05:24:17;103.83;;;6.90;;
3700;SDS011;1866;48.374;10.766;2023-02-20T05:26:44;97.77;;;6.97;;
3700;SDS011;1866;48.374;10.766;2023-02-20T05:29:14;98.17;;;6.90;;
3700;SDS011;1866;48.374;10.766;2023-02-20T05:31:41;100.87;;;7.13;;
3700;SDS011;1866;48.374;10.766;2023-02-20T05:34:08;96.13;;;6.40;;
3700;SDS011;1866;48.374;10.766;2023-02-20T05:36:35;98.30;;;6.87;;
3700;SDS011;1866;48.374;10.766;2023-02-20T05:39:03;96.47;;;6.70;;
3700;SDS011;1866;48.374;10.766;2023-02-20T05:41:30;100.30;;;6.97;;
3700;SDS011;1866;48.374;10.766;2023-02-20T05:43:57;97.60;;;6.80;;
3700;SDS011;1866;48.374;10.766;2023-02-20T05:46:26;97.30;;;6.70;;
3700;SDS011;1866;48.374;10.766;2023-02-20T05:48:53;97.77;;;6.73;;
3700;SDS011;1866;48.374;10.766;2023-02-20T05:51:21;98.30;;;6.80;;
3700;SDS011;1866;48.374;10.766;2023-02-20T05:53:50;97.67;;;7.20;;
3700;SDS011;1866;48.374;10.766;2023-02-20T05:56:17;99.07;;;7.13;;
3700;SDS011;1866;48.374;10.766;2023-02-20T05:58:44;96.73;;;6.57;;
3700;SDS011;1866;48.374;10.766;2023-02-20T06:01:18;98.97;;;7.10;;
3700;SDS011;1866;48.374;10.766;2023-02-20T06:03:47;98.57;;;7.10;;
3700;SDS011;1866;48.374;10.766;2023-02-20T06:06:17;96.17;;;6.67;;
3700;SDS011;1866;48.374;10.766;2023-02-20T06:08:49;96.97;;;6.90;;
3700;SDS011;1866;48.374;10.766;2023-02-20T06:11:16;96.20;;;6.40;;
3700;SDS011;1866;48.374;10.766;2023-02-20T06:13:44;97.43;;;7.10;;
3700;SDS011;1866;48.374;10.766;2023-02-20T06:18:48;96.63;;;6.70;;
3700;SDS011;1866;48.374;10.766;2023-02-20T06:21:22;101.50;;;7.23;;
3700;SDS011;1866;48.374;10.766;2023-02-20T06:23:51;96.67;;;6.87;;
3700;SDS011;1866;48.374;10.766;2023-02-20T06:26:21;97.10;;;7.10;;
3700;SDS011;1866;48.374;10.766;2023-02-20T06:28:48;97.40;;;6.73;;
3700;SDS011;1866;48.374;10.766;2023-02-20T06:31:19;97.00;;;6.83;;
3700;SDS011;1866;48.374;10.766;2023-02-20T06:33:49;97.37;;;7.03;;
3700;SDS011;1866;48.374;10.766;2023-02-20T06:36:18;96.77;;;7.20;;
3700;SDS011;1866;48.374;10.766;2023-02-20T06:38:46;97.77;;;7.00;;
3700;SDS011;1866;48.374;10.766;2023-02-20T06:41:13;99.50;;;7.80;;
3700;SDS011;1866;48.374;10.766;2023-02-20T06:43:41;97.73;;;7.30;;
3700;SDS011;1866;48.374;10.766;2023-02-20T06:48:42;98.27;;;7.10;;
3700;SDS011;1866;48.374;10.766;2023-02-20T06:51:12;103.50;;;7.07;;
3700;SDS011;1866;48.374;10.766;2023-02-20T06:53:43;97.90;;;6.80;;
3700;SDS011;1866;48.374;10.766;2023-02-20T06:56:13;98.03;;;7.40;;
3700;SDS011;1866;48.374;10.766;2023-02-20T06:58:42;99.90;;;7.23;;
3700;SDS011;1866;48.374;10.766;2023-02-20T07:01:10;103.57;;;8.20;;
3700;SDS011;1866;48.374;10.766;2023-02-20T07:03:37;101.93;;;8.77;;
3700;SDS011;1866;48.374;10.766;2023-02-20T07:06:04;99.57;;;7.40;;
3700;SDS011;1866;48.374;10.766;2023-02-20T07:08:33;98.07;;;7.40;;
3700;SDS011;1866;48.374;10.766;2023-02-20T07:11:00;100.37;;;7.30;;
3700;SDS011;1866;48.374;10.766;2023-02-20T07:13:27;99.17;;;7.87;;
3700;SDS011;1866;48.374;10.766;2023-02-20T07:15:53;101.97;;;7.33;;
3700;SDS011;1866;48.374;10.766;2023-02-20T07:18:20;98.20;;;7.00;;
3700;SDS011;1866;48.374;10.766;2023-02-20T07:20:48;106.40;;;7.70;;
3700;SDS011;1866;48.374;10.766;2023-02-20T07:23:15;99.20;;;7.70;;
3700;SDS011;1866;48.374;10.766;2023-02-20T07:25:43;103.50;;;9.10;;
3700;SDS011;1866;48.374;10.766;2023-02-20T07:28:17;98.47;;;6.87;;
3700;SDS011;1866;48.374;10.766;2023-02-20T07:30:45;100.37;;;7.27;;
3700;SDS011;1866;48.374;10.766;2023-02-20T07:33:13;98.10;;;7.27;;
3700;SDS011;1866;48.374;10.766;2023-02-20T07:35:40;99.00;;;7.07;;
3700;SDS011;1866;48.374;10.766;2023-02-20T07:38:07;99.10;;;6.67;;
3700;SDS011;1866;48.374;10.766;2023-02-20T07:40:34;104.30;;;9.57;;
3700;SDS011;1866;48.374;10.766;2023-02-20T07:43:03;98.50;;;7.50;;
3700;SDS011;1866;48.374;10.766;2023-02-20T07:45:30;99.43;;;7.20;;
3700;SDS011;1866;48.374;10.766;2023-02-20T07:47:57;97.73;;;6.73;;
3700;SDS011;1866;48.374;10.766;2023-02-20T07:50:24;100.00;;;7.70;;
3700;SDS011;1866;48.374;10.766;2023-02-20T07:52:52;104.37;;;9.87;;
3700;SDS011;1866;48.374;10.766;2023-02-20T07:55:20;115.57;;;12.47;;
3700;SDS011;1866;48.374;10.766;2023-02-20T07:57:47;99.27;;;7.77;;
3700;SDS011;1866;48.374;10.766;2023-02-20T08:00:17;100.90;;;7.77;;
3700;SDS011;1866;48.374;10.766;2023-02-20T08:02:45;102.80;;;7.30;;
3700;SDS011;1866;48.374;10.766;2023-02-20T08:05:15;99.27;;;6.93;;
3700;SDS011;1866;48.374;10.766;2023-02-20T08:07:45;98.77;;;6.60;;
3700;SDS011;1866;48.374;10.766;2023-02-20T08:10:14;98.80;;;6.90;;
3700;SDS011;1866;48.374;10.766;2023-02-20T08:12:44;99.57;;;6.90;;
3700;SDS011;1866;48.374;10.766;2023-02-20T08:15:12;98.97;;;6.80;;
3700;SDS011;1866;48.374;10.766;2023-02-20T08:17:41;98.30;;;6.23;;
3700;SDS011;1866;48.374;10.766;2023-02-20T08:20:09;98.87;;;6.50;;
3700;SDS011;1866;48.374;10.766;2023-02-20T08:22:38;99.40;;;6.63;;
3700;SDS011;1866;48.374;10.766;2023-02-20T08:25:11;99.50;;;6.77;;
3700;SDS011;1866;48.374;10.766;2023-02-20T08:27:40;99.90;;;6.70;;
3700;SDS011;1866;48.374;10.766;2023-02-20T08:30:10;99.70;;;6.60;;
3700;SDS011;1866;48.374;10.766;2023-02-20T08:32:38;98.73;;;6.43;;
3700;SDS011;1866;48.374;10.766;2023-02-20T08:37:38;101.60;;;7.00;;
3700;SDS011;1866;48.374;10.766;2023-02-20T08:40:05;101.97;;;6.87;;
3700;SDS011;1866;48.374;10.766;2023-02-20T08:42:33;98.43;;;6.30;;
3700;SDS011;1866;48.374;10.766;2023-02-20T08:45:01;104.53;;;6.80;;
3700;SDS011;1866;48.374;10.766;2023-02-20T08:47:30;99.17;;;6.93;;
3700;SDS011;1866;48.374;10.766;2023-02-20T08:49:58;100.07;;;6.37;;
3700;SDS011;1866;48.374;10.766;2023-02-20T08:52:26;99.03;;;6.27;;
3700;SDS011;1866;48.374;10.766;2023-02-20T08:54:53;99.27;;;6.20;;
3700;SDS011;1866;48.374;10.766;2023-02-20T08:57:23;101.00;;;6.67;;
3700;SDS011;1866;48.374;10.766;2023-02-20T08:59:50;99.40;;;6.20;;
3700;SDS011;1866;48.374;10.766;2023-02-20T09:02:18;101.27;;;5.90;;
3700;SDS011;1866;48.374;10.766;2023-02-20T09:04:48;99.10;;;6.20;;
3700;SDS011;1866;48.374;10.766;2023-02-20T09:07:15;101.10;;;5.90;;
3700;SDS011;1866;48.374;10.766;2023-02-20T09:09:44;99.70;;;6.00;;
3700;SDS011;1866;48.374;10.766;2023-02-20T09:12:10;98.37;;;5.73;;
3700;SDS011;1866;48.374;10.766;2023-02-20T09:14:37;99.03;;;6.13;;
3700;SDS011;1866;48.374;10.766;2023-02-20T09:17:05;99.17;;;6.20;;
3700;SDS011;1866;48.374;10.766;2023-02-20T09:19:32;103.27;;;6.43;;
3700;SDS011;1866;48.374;10.766;2023-02-20T09:21:59;98.77;;;6.10;;
3700;SDS011;1866;48.374;10.766;2023-02-20T09:24:26;103.87;;;6.40;;
3700;SDS011;1866;48.374;10.766;2023-02-20T09:26:59;100.33;;;6.40;;
3700;SDS011;1866;48.374;10.766;2023-02-20T09:29:27;100.30;;;6.87;;
3700;SDS011;1866;48.374;10.766;2023-02-20T09:31:54;99.40;;;5.90;;
3700;SDS011;1866;48.374;10.766;2023-02-20T09:34:22;100.57;;;6.43;;
3700;SDS011;1866;48.374;10.766;2023-02-20T09:36:49;99.87;;;5.80;;
3700;SDS011;1866;48.374;10.766;2023-02-20T09:39:16;102.67;;;5.80;;
3700;SDS011;1866;48.374;10.766;2023-02-20T09:41:48;102.47;;;6.50;;
3700;SDS011;1866;48.374;10.766;2023-02-20T09:44:31;101.00;;;6.10;;
3700;SDS011;1866;48.374;10.766;2023-02-20T09:47:06;100.93;;;6.33;;
3700;SDS011;1866;48.374;10.766;2023-02-20T09:49:50;105.07;;;6.10;;
3700;SDS011;1866;48.374;10.766;2023-02-20T09:52:18;101.00;;;6.10;;
3700;SDS011;1866;48.374;10.766;2023-02-20T09:54:48;100.43;;;6.00;;
3700;SDS011;1866;48.374;10.766;2023-02-20T09:57:20;100.00;;;5.77;;
3700;SDS011;1866;48.374;10.766;2023-02-20T09:59:52;102.70;;;6.50;;
3700;SDS011;1866;48.374;10.766;2023-02-20T10:02:24;99.97;;;6.10;;
3700;SDS011;1866;48.374;10.766;2023-02-20T10:04:55;100.87;;;6.30;;
3700;SDS011;1866;48.374;10.766;2023-02-20T10:07:27;101.47;;;6.47;;
3700;SDS011;1866;48.374;10.766;2023-02-20T10:09:56;100.27;;;6.50;;
3700;SDS011;1866;48.374;10.766;2023-02-20T10:12:26;105.10;;;6.50;;
3700;SDS011;1866;48.374;10.766;2023-02-20T10:15:07;101.27;;;6.30;;
3700;SDS011;1866;48.374;10.766;2023-02-20T10:17:46;99.40;;;5.83;;
3700;SDS011;1866;48.374;10.766;2023-02-20T10:20:22;100.63;;;6.10;;
3700;SDS011;1866;48.374;10.766;2023-02-20T10:23:02;99.77;;;5.87;;
3700;SDS011;1866;48.374;10.766;2023-02-20T10:25:39;99.67;;;5.80;;
3700;SDS011;1866;48.374;10.766;2023-02-20T10:28:10;102.10;;;6.33;;
3700;SDS011;1866;48.374;10.766;2023-02-20T10:30:43;99.23;;;5.60;;
3700;SDS011;1866;48.374;10.766;2023-02-20T10:33:17;99.90;;;6.10;;
3700;SDS011;1866;48.374;10.766;2023-02-20T10:35:52;101.70;;;6.10;;
3700;SDS011;1866;48.374;10.766;2023-02-20T10:38:23;99.63;;;5.70;;
3700;SDS011;1866;48.374;10.766;2023-02-20T10:40:56;100.10;;;5.80;;
3700;SDS011;1866;48.374;10.766;2023-02-20T10:43:31;100.20;;;5.47;;
3700;SDS011;1866;48.374;10.766;2023-02-20T10:46:06;99.10;;;5.40;;
3700;SDS011;1866;48.374;10.766;2023-02-20T10:48:36;99.17;;;5.80;;
3700;SDS011;1866;48.374;10.766;2023-02-20T10:51:07;110.20;;;6.13;;
3700;SDS011;1866;48.374;10.766;2023-02-20T10:53:39;100.87;;;5.70;;
3700;SDS011;1866;48.374;10.766;2023-02-20T10:56:12;101.00;;;5.73;;
3700;SDS011;1866;48.374;10.766;2023-02-20T10:58:45;100.30;;;5.50;;
3700;SDS011;1866;48.374;10.766;2023-02-20T11:01:17;105.13;;;5.73;;
3700;SDS011;1866;48.374;10.766;2023-02-20T11:03:47;103.47;;;6.10;;
3700;SDS011;1866;48.374;10.766;2023-02-20T11:06:22;100.30;;;5.80;;
3700;SDS011;1866;48.374;10.766;2023-02-20T11:08:54;99.50;;;5.13;;
3700;SDS011;1866;48.374;10.766;2023-02-20T11:11:23;102.10;;;5.60;;
3700;SDS011;1866;48.374;10.766;2023-02-20T11:13:53;100.67;;;6.00;;
3700;SDS011;1866;48.374;10.766;2023-02-20T11:16:23;99.67;;;5.90;;
3700;SDS011;1866;48.374;10.766;2023-02-20T11:19:01;100.73;;;6.17;;
3700;SDS011;1866;48.374;10.766;2023-02-20T11:21:36;100.43;;;5.50;;
3700;SDS011;1866;48.374;10.766;2023-02-20T11:24:25;100.40;;;5.70;;
3700;SDS011;1866;48.374;10.766;2023-02-20T11:26:55;99.93;;;6.13;;
3700;SDS011;1866;48.374;10.766;2023-02-20T11:29:42;101.37;;;5.67;;
3700;SDS011;1866;48.374;10.766;2023-02-20T11:32:22;99.17;;;5.50;;
3700;SDS011;1866;48.374;10.766;2023-02-20T11:35:03;99.27;;;5.73;;
3700;SDS011;1866;48.374;10.766;2023-02-20T11:37:44;99.70;;;5.53;;
3700;SDS011;1866;48.374;10.766;2023-02-20T11:40:14;104.57;;;5.70;;
3700;SDS011;1866;48.374;10.766;2023-02-20T11:42:42;100.70;;;5.43;;
3700;SDS011;1866;48.374;10.766;2023-02-20T11:45:13;100.03;;;5.50;;
3700;SDS011;1866;48.374;10.766;2023-02-20T11:47:43;101.57;;;5.40;;
3700;SDS011;1866;48.374;10.766;2023-02-20T11:50:12;101.40;;;6.00;;
3700;SDS011;1866;48.374;10.766;2023-02-20T11:52:55;100.53;;;5.50;;
3700;SDS011;1866;48.374;10.766;2023-02-20T11:55:24;100.87;;;5.70;;
3700;SDS011;1866;48.374;10.766;2023-02-20T11:57:53;100.53;;;5.93;;
3700;SDS011;1866;48.374;10.766;2023-02-20T12:00:21;100.37;;;5.67;;
3700;SDS011;1866;48.374;10.766;2023-02-20T12:02:52;100.07;;;5.60;;
3700;SDS011;1866;48.374;10.766;2023-02-20T12:05:37;102.87;;;5.90;;
3700;SDS011;1866;48.374;10.766;2023-02-20T12:08:19;102.40;;;5.77;;
3700;SDS011;1866;48.374;10.766;2023-02-20T12:10:57;102.47;;;5.83;;
3700;SDS011;1866;48.374;10.766;2023-02-20T12:13:26;100.30;;;5.50;;
3700;SDS011;1866;48.374;10.766;2023-02-20T12:15:54;100.40;;;5.90;;
3700;SDS011;1866;48.374;10.766;2023-02-20T12:18:34;101.30;;;5.97;;
3700;SDS011;1866;48.374;10.766;2023-02-20T12:24:08;100.60;;;5.90;;
3700;SDS011;1866;48.374;10.766;2023-02-20T12:26:49;101.10;;;5.87;;
3700;SDS011;1866;48.374;10.766;2023-02-20T12:29:20;101.10;;;5.80;;
3700;SDS011;1866;48.374;10.766;2023-02-20T12:32:01;102.20;;;5.83;;
3700;SDS011;1866;48.374;10.766;2023-02-20T12:34:59;101.23;;;5.83;;
3700;SDS011;1866;48.374;10.766;2023-02-20T12:37:40;101.13;;;5.63;;
3700;SDS011;1866;48.374;10.766;2023-02-20T12:40:21;101.10;;;5.47;;
3700;SDS011;1866;48.374;10.766;2023-02-20T12:42:56;101.07;;;5.70;;
3700;SDS011;1866;48.374;10.766;2023-02-20T12:45:34;101.47;;;5.53;;
3700;SDS011;1866;48.374;10.766;2023-02-20T12:48:15;101.70;;;5.53;;
3700;SDS011;1866;48.374;10.766;2023-02-20T12:50:59;103.07;;;5.90;;
3700;SDS011;1866;48.374;10.766;2023-02-20T12:53:38;100.70;;;5.37;;
3700;SDS011;1866;48.374;10.766;2023-02-20T12:56:16;101.00;;;5.60;;
3700;SDS011;1866;48.374;10.766;2023-02-20T12:58:54;101.37;;;5.57;;
3700;SDS011;1866;48.374;10.766;2023-02-20T13:01:25;101.43;;;5.53;;
3700;SDS011;1866;48.374;10.766;2023-02-20T13:03:57;100.47;;;5.43;;
3700;SDS011;1866;48.374;10.766;2023-02-20T13:06:31;102.73;;;5.13;;
3700;SDS011;1866;48.374;10.766;2023-02-20T13:09:02;101.27;;;5.50;;
3700;SDS011;1866;48.374;10.766;2023-02-20T13:11:34;100.77;;;5.20;;
3700;SDS011;1866;48.374;10.766;2023-02-20T13:14:08;102.83;;;5.63;;
3700;SDS011;1866;48.374;10.766;2023-02-20T13:16:49;100.97;;;5.27;;
3700;SDS011;1866;48.374;10.766;2023-02-20T13:19:22;101.47;;;5.27;;
3700;SDS011;1866;48.374;10.766;2023-02-20T13:21:55;101.33;;;5.70;;
3700;SDS011;1866;48.374;10.766;2023-02-20T13:24:26;100.60;;;5.13;;
3700;SDS011;1866;48.374;10.766;2023-02-20T13:26:59;101.47;;;5.47;;
3700;SDS011;1866;48.374;10.766;2023-02-20T13:29:31;100.90;;;5.37;;
3700;SDS011;1866;48.374;10.766;2023-02-20T13:32:00;101.07;;;5.30;;
3700;SDS011;1866;48.374;10.766;2023-02-20T13:34:30;100.07;;;4.93;;
3700;SDS011;1866;48.374;10.766;2023-02-20T13:37:04;102.57;;;5.40;;
3700;SDS011;1866;48.374;10.766;2023-02-20T13:43:18;100.27;;;5.40;;
3700;SDS011;1866;48.374;10.766;2023-02-20T13:48:39;100.70;;;5.30;;
3700;SDS011;1866;48.374;10.766;2023-02-20T13:56:59;102.70;;;5.43;;
3700;SDS011;1866;48.374;10.766;2023-02-20T13:59:37;102.77;;;5.47;;
3700;SDS011;1866;48.374;10.766;2023-02-20T14:02:12;105.37;;;6.10;;
3700;SDS011;1866;48.374;10.766;2023-02-20T14:04:51;100.20;;;5.27;;
3700;SDS011;1866;48.374;10.766;2023-02-20T14:07:26;100.97;;;5.50;;
3700;SDS011;1866;48.374;10.766;2023-02-20T14:10:04;100.67;;;5.27;;
3700;SDS011;1866;48.374;10.766;2023-02-20T14:12:34;104.57;;;5.60;;
3700;SDS011;1866;48.374;10.766;2023-02-20T14:15:02;104.57;;;5.30;;
3700;SDS011;1866;48.374;10.766;2023-02-20T14:17:31;101.80;;;5.37;;
3700;SDS011;1866;48.374;10.766;2023-02-20T14:20:00;104.47;;;5.50;;
3700;SDS011;1866;48.374;10.766;2023-02-20T14:22:30;100.77;;;5.57;;
3700;SDS011;1866;48.374;10.766;2023-02-20T14:25:06;100.90;;;5.60;;
3700;SDS011;1866;48.374;10.766;2023-02-20T14:27:45;100.37;;;5.30;;
3700;SDS011;1866;48.374;10.766;2023-02-20T14:30:13;100.50;;;5.27;;
3700;SDS011;1866;48.374;10.766;2023-02-20T14:32:43;100.20;;;5.10;;
3700;SDS011;1866;48.374;10.766;2023-02-20T14:35:14;100.77;;;5.47;;
3700;SDS011;1866;48.374;10.766;2023-02-20T14:37:51;100.87;;;5.60;;
3700;SDS011;1866;48.374;10.766;2023-02-20T14:40:28;100.57;;;5.07;;
3700;SDS011;1866;48.374;10.766;2023-02-20T14:43:00;100.97;;;5.17;;
3700;SDS011;1866;48.374;10.766;2023-02-20T14:45:28;100.07;;;4.87;;
3700;SDS011;1866;48.374;10.766;2023-02-20T14:47:57;99.90;;;5.10;;
3700;SDS011;1866;48.374;10.766;2023-02-20T14:50:26;100.17;;;5.07;;
3700;SDS011;1866;48.374;10.766;2023-02-20T14:53:01;102.90;;;5.20;;
3700;SDS011;1866;48.374;10.766;2023-02-20T14:55:31;99.77;;;5.17;;
3700;SDS011;1866;48.374;10.766;2023-02-20T14:58:03;100.37;;;5.50;;
3700;SDS011;1866;48.374;10.766;2023-02-20T15:00:32;101.27;;;5.33;;
3700;SDS011;1866;48.374;10.766;2023-02-20T15:03:00;102.63;;;5.40;;
3700;SDS011;1866;48.374;10.766;2023-02-20T15:05:33;103.00;;;7.00;;
3700;SDS011;1866;48.374;10.766;2023-02-20T15:08:03;100.30;;;5.33;;
3700;SDS011;1866;48.374;10.766;2023-02-20T15:10:46;100.10;;;5.27;;
3700;SDS011;1866;48.374;10.766;2023-02-20T15:13:16;99.50;;;4.90;;
3700;SDS011;1866;48.374;10.766;2023-02-20T15:15:45;100.40;;;5.03;;
3700;SDS011;1866;48.374;10.766;2023-02-20T15:18:14;100.47;;;5.00;;
3700;SDS011;1866;48.374;10.766;2023-02-20T15:20:55;100.27;;;5.17;;
3700;SDS011;1866;48.374;10.766;2023-02-20T15:23:23;100.80;;;5.30;;
3700;SDS011;1866;48.374;10.766;2023-02-20T15:25:54;100.47;;;5.23;;
3700;SDS011;1866;48.374;10.766;2023-02-20T15:28:27;101.07;;;5.10;;
3700;SDS011;1866;48.374;10.766;2023-02-20T15:30:59;102.90;;;5.57;;
3700;SDS011;1866;48.374;10.766;2023-02-20T15:33:32;101.17;;;5.43;;
3700;SDS011;1866;48.374;10.766;2023-02-20T15:36:00;103.00;;;5.50;;
3700;SDS011;1866;48.374;10.766;2023-02-20T15:38:28;100.07;;;5.43;;
3700;SDS011;1866;48.374;10.766;2023-02-20T15:40:58;100.30;;;5.27;;